sensor_id;sensor_type;location;lat;lon;timestamp;pressure;altitude;pressure_sealevel;temperature;humidity
10732;BME280;5417;42.686;23.244;2022-08-19T00:01:20;94039.72;;;25.12;49.91
10732;BME280;5417;42.686;23.244;2022-08-19T00:03:47;94035.66;;;25.10;50.60
10732;BME280;5417;42.686;23.244;2022-08-19T00:06:14;94030.78;;;25.07;50.08
10732;BME280;5417;42.686;23.244;2022-08-19T00:08:41;94041.66;;;25.05;50.29
10732;BME280;5417;42.686;23.244;2022-08-19T00:11:10;94040.63;;;25.06;50.34
10732;BME280;5417;42.686;23.244;2022-08-19T00:13:38;94039.59;;;25.07;50.52
10732;BME280;5417;42.686;23.244;2022-08-19T00:16:05;94039.00;;;25.05;50.88
10732;BME280;5417;42.686;23.244;2022-08-19T00:18:33;94051.88;;;25.08;51.46
10732;BME280;5417;42.686;23.244;2022-08-19T00:21:00;94052.59;;;25.15;50.75
10732;BME280;5417;42.686;23.244;2022-08-19T00:23:27;94058.66;;;25.04;50.70
10732;BME280;5417;42.686;23.244;2022-08-19T00:25:54;94058.09;;;24.96;51.03
10732;BME280;5417;42.686;23.244;2022-08-19T00:28:23;94054.47;;;24.90;51.51
10732;BME280;5417;42.686;23.244;2022-08-19T00:30:49;94054.91;;;24.87;51.31
10732;BME280;5417;42.686;23.244;2022-08-19T00:33:18;94052.47;;;24.85;51.01
10732;BME280;5417;42.686;23.244;2022-08-19T00:35:45;94050.47;;;24.81;51.32
10732;BME280;5417;42.686;23.244;2022-08-19T00:38:12;94046.41;;;24.78;51.70
10732;BME280;5417;42.686;23.244;2022-08-19T00:40:40;94042.34;;;24.76;51.14
10732;BME280;5417;42.686;23.244;2022-08-19T00:43:09;94049.28;;;24.77;50.96
10732;BME280;5417;42.686;23.244;2022-08-19T00:45:40;94040.72;;;24.75;51.08
10732;BME280;5417;42.686;23.244;2022-08-19T00:48:13;94041.16;;;24.72;51.16
10732;BME280;5417;42.686;23.244;2022-08-19T00:50:41;94045.44;;;24.73;51.44
10732;BME280;5417;42.686;23.244;2022-08-19T00:53:09;94040.13;;;24.73;51.91
10732;BME280;5417;42.686;23.244;2022-08-19T00:55:37;94039.53;;;24.71;51.73
10732;BME280;5417;42.686;23.244;2022-08-19T00:58:07;94037.06;;;24.69;51.47
10732;BME280;5417;42.686;23.244;2022-08-19T01:00:36;94029.09;;;24.69;51.23
10732;BME280;5417;42.686;23.244;2022-08-19T01:03:06;94029.31;;;24.68;51.79
10732;BME280;5417;42.686;23.244;2022-08-19T01:05:34;94029.16;;;24.63;52.20
10732;BME280;5417;42.686;23.244;2022-08-19T01:08:04;94036.78;;;24.59;51.32
10732;BME280;5417;42.686;23.244;2022-08-19T01:10:35;94036.41;;;24.56;51.74
10732;BME280;5417;42.686;23.244;2022-08-19T01:13:04;94040.31;;;24.53;51.85
10732;BME280;5417;42.686;23.244;2022-08-19T01:15:32;94040.53;;;24.51;51.97
10732;BME280;5417;42.686;23.244;2022-08-19T01:18:05;94039.13;;;24.49;51.86
10732;BME280;5417;42.686;23.244;2022-08-19T01:20:35;94036.25;;;24.50;51.85
10732;BME280;5417;42.686;23.244;2022-08-19T01:23:03;94030.69;;;24.52;51.98
10732;BME280;5417;42.686;23.244;2022-08-19T01:25:34;94033.00;;;24.48;52.36
10732;BME280;5417;42.686;23.244;2022-08-19T01:28:03;94030.13;;;24.43;52.39
10732;BME280;5417;42.686;23.244;2022-08-19T01:30:33;94033.03;;;24.42;52.68
10732;BME280;5417;42.686;23.244;2022-08-19T01:33:01;94036.94;;;24.39;52.54
10732;BME280;5417;42.686;23.244;2022-08-19T01:35:31;94037.16;;;24.38;52.50
10732;BME280;5417;42.686;23.244;2022-08-19T01:38:01;94036.09;;;24.45;51.47
10732;BME280;5417;42.686;23.244;2022-08-19T01:40:31;94038.09;;;24.50;51.70
10732;BME280;5417;42.686;23.244;2022-08-19T01:43:00;94033.97;;;24.54;52.00
10732;BME280;5417;42.686;23.244;2022-08-19T01:45:29;94043.34;;;24.57;51.77
10732;BME280;5417;42.686;23.244;2022-08-19T01:47:57;94042.31;;;24.58;51.71
10732;BME280;5417;42.686;23.244;2022-08-19T01:50:24;94038.25;;;24.55;51.34
10732;BME280;5417;42.686;23.244;2022-08-19T01:52:52;94039.94;;;24.49;52.25
10732;BME280;5417;42.686;23.244;2022-08-19T01:55:20;94041.59;;;24.44;52.24
10732;BME280;5417;42.686;23.244;2022-08-19T01:57:52;94043.06;;;24.40;52.53
10732;BME280;5417;42.686;23.244;2022-08-19T02:00:24;94041.66;;;24.37;52.14
10732;BME280;5417;42.686;23.244;2022-08-19T02:02:51;94034.34;;;24.33;52.67
10732;BME280;5417;42.686;23.244;2022-08-19T02:05:18;94041.13;;;24.29;53.40
10732;BME280;5417;42.686;23.244;2022-08-19T02:07:46;94036.03;;;24.27;53.45
10732;BME280;5417;42.686;23.244;2022-08-19T02:10:16;94037.22;;;24.24;52.95
10732;BME280;5417;42.686;23.244;2022-08-19T02:12:44;94039.34;;;24.16;53.25
10732;BME280;5417;42.686;23.244;2022-08-19T02:15:12;94045.91;;;24.13;53.29
10732;BME280;5417;42.686;23.244;2022-08-19T02:17:40;94038.38;;;24.10;52.97
10732;BME280;5417;42.686;23.244;2022-08-19T02:20:08;94040.38;;;24.15;53.48
10732;BME280;5417;42.686;23.244;2022-08-19T02:22:35;94039.78;;;24.13;53.36
10732;BME280;5417;42.686;23.244;2022-08-19T02:25:03;94036.75;;;24.09;53.94
10732;BME280;5417;42.686;23.244;2022-08-19T02:27:31;94038.44;;;24.04;54.38
10732;BME280;5417;42.686;23.244;2022-08-19T02:29:58;94038.69;;;23.96;54.66
10732;BME280;5417;42.686;23.244;2022-08-19T02:32:27;94040.34;;;23.90;54.72
10732;BME280;5417;42.686;23.244;2022-08-19T02:34:55;94034.66;;;23.86;54.45
10732;BME280;5417;42.686;23.244;2022-08-19T02:37:22;94029.75;;;23.83;54.83
10732;BME280;5417;42.686;23.244;2022-08-19T02:40:07;94035.50;;;23.80;55.45
10732;BME280;5417;42.686;23.244;2022-08-19T02:42:34;94035.25;;;23.88;55.21
10732;BME280;5417;42.686;23.244;2022-08-19T02:45:01;94039.22;;;23.73;55.69
10732;BME280;5417;42.686;23.244;2022-08-19T02:47:29;94039.63;;;23.76;55.35
10732;BME280;5417;42.686;23.244;2022-08-19T02:49:56;94036.84;;;23.65;55.47
10732;BME280;5417;42.686;23.244;2022-08-19T02:52:23;94037.91;;;23.57;56.34
10732;BME280;5417;42.686;23.244;2022-08-19T02:54:50;94048.91;;;23.60;56.18
10732;BME280;5417;42.686;23.244;2022-08-19T02:57:17;94053.25;;;23.55;56.32
10732;BME280;5417;42.686;23.244;2022-08-19T02:59:44;94045.88;;;23.50;56.55
10732;BME280;5417;42.686;23.244;2022-08-19T03:02:11;94051.00;;;23.45;56.73
10732;BME280;5417;42.686;23.244;2022-08-19T03:04:39;94047.16;;;23.41;56.76
10732;BME280;5417;42.686;23.244;2022-08-19T03:07:06;94045.91;;;23.37;57.10
10732;BME280;5417;42.686;23.244;2022-08-19T03:09:36;94047.16;;;23.35;57.19
10732;BME280;5417;42.686;23.244;2022-08-19T03:12:03;94048.41;;;23.32;56.94
10732;BME280;5417;42.686;23.244;2022-08-19T03:14:31;94045.94;;;23.30;56.42
10732;BME280;5417;42.686;23.244;2022-08-19T03:16:58;94049.38;;;23.38;55.95
10732;BME280;5417;42.686;23.244;2022-08-19T03:19:25;94047.53;;;23.45;55.70
10732;BME280;5417;42.686;23.244;2022-08-19T03:21:54;94048.75;;;23.49;55.37
10732;BME280;5417;42.686;23.244;2022-08-19T03:24:21;94047.72;;;23.50;55.56
10732;BME280;5417;42.686;23.244;2022-08-19T03:26:50;94055.69;;;23.56;55.27
10732;BME280;5417;42.686;23.244;2022-08-19T03:29:18;94056.72;;;23.55;55.30
10732;BME280;5417;42.686;23.244;2022-08-19T03:31:45;94046.28;;;23.54;55.34
10732;BME280;5417;42.686;23.244;2022-08-19T03:34:15;94050.16;;;23.51;55.45
10732;BME280;5417;42.686;23.244;2022-08-19T03:36:44;94056.94;;;23.47;56.10
10732;BME280;5417;42.686;23.244;2022-08-19T03:39:13;94043.66;;;23.41;56.17
10732;BME280;5417;42.686;23.244;2022-08-19T03:41:42;94056.34;;;23.39;56.31
10732;BME280;5417;42.686;23.244;2022-08-19T03:44:09;94057.78;;;23.35;56.41
10732;BME280;5417;42.686;23.244;2022-08-19T03:46:36;94058.59;;;23.35;56.73
10732;BME280;5417;42.686;23.244;2022-08-19T03:51:49;94066.56;;;23.42;56.66
10732;BME280;5417;42.686;23.244;2022-08-19T03:54:20;94071.25;;;23.40;56.59
10732;BME280;5417;42.686;23.244;2022-08-19T03:56:50;94071.88;;;23.35;56.82
10732;BME280;5417;42.686;23.244;2022-08-19T03:59:23;94074.97;;;23.32;56.89
10732;BME280;5417;42.686;23.244;2022-08-19T04:01:52;94073.31;;;23.31;57.10
10732;BME280;5417;42.686;23.244;2022-08-19T04:04:19;94079.03;;;23.35;57.15
10732;BME280;5417;42.686;23.244;2022-08-19T04:06:47;94082.69;;;23.40;57.23
10732;BME280;5417;42.686;23.244;2022-08-19T04:09:14;94076.75;;;23.45;57.00
10732;BME280;5417;42.686;23.244;2022-08-19T04:11:47;94084.69;;;23.51;56.88
10732;BME280;5417;42.686;23.244;2022-08-19T04:14:19;94078.16;;;23.60;56.69
10732;BME280;5417;42.686;23.244;2022-08-19T04:16:47;94085.06;;;23.68;56.13
10732;BME280;5417;42.686;23.244;2022-08-19T04:19:16;94080.91;;;23.79;56.44
10732;BME280;5417;42.686;23.244;2022-08-19T04:21:44;94080.97;;;24.04;56.65
10732;BME280;5417;42.686;23.244;2022-08-19T04:24:12;94079.34;;;24.59;54.71
10732;BME280;5417;42.686;23.244;2022-08-19T04:26:40;94078.41;;;25.33;53.31
10732;BME280;5417;42.686;23.244;2022-08-19T04:29:10;94082.66;;;26.19;51.43
10732;BME280;5417;42.686;23.244;2022-08-19T04:31:38;94083.38;;;27.03;48.81
10732;BME280;5417;42.686;23.244;2022-08-19T04:34:08;94076.00;;;27.85;46.46
10732;BME280;5417;42.686;23.244;2022-08-19T04:36:38;94077.81;;;28.70;44.15
10732;BME280;5417;42.686;23.244;2022-08-19T04:39:09;94082.50;;;29.52;41.39
10732;BME280;5417;42.686;23.244;2022-08-19T04:41:36;94075.53;;;30.22;40.19
10732;BME280;5417;42.686;23.244;2022-08-19T04:44:22;94081.19;;;30.79;39.25
10732;BME280;5417;42.686;23.244;2022-08-19T04:46:50;94079.94;;;31.29;38.07
10732;BME280;5417;42.686;23.244;2022-08-19T04:49:20;94071.00;;;31.70;37.33
10732;BME280;5417;42.686;23.244;2022-08-19T04:51:48;94074.63;;;32.17;36.25
10732;BME280;5417;42.686;23.244;2022-08-19T04:54:16;94076.88;;;32.66;35.49
10732;BME280;5417;42.686;23.244;2022-08-19T04:56:45;94076.34;;;33.09;34.27
10732;BME280;5417;42.686;23.244;2022-08-19T04:59:14;94084.41;;;33.50;33.13
10732;BME280;5417;42.686;23.244;2022-08-19T05:01:43;94083.78;;;33.83;33.22
10732;BME280;5417;42.686;23.244;2022-08-19T05:04:17;94077.25;;;33.95;32.83
10732;BME280;5417;42.686;23.244;2022-08-19T05:06:45;94088.19;;;34.18;32.65
10732;BME280;5417;42.686;23.244;2022-08-19T05:09:31;94086.97;;;34.50;31.61
10732;BME280;5417;42.686;23.244;2022-08-19T05:11:58;94079.50;;;34.71;31.27
10732;BME280;5417;42.686;23.244;2022-08-19T05:14:26;94074.81;;;34.87;30.27
10732;BME280;5417;42.686;23.244;2022-08-19T05:16:54;94078.44;;;35.06;30.33
10732;BME280;5417;42.686;23.244;2022-08-19T05:19:24;94077.69;;;35.24;31.22
10732;BME280;5417;42.686;23.244;2022-08-19T05:22:09;94082.22;;;35.39;31.11
10732;BME280;5417;42.686;23.244;2022-08-19T05:24:53;94080.94;;;35.55;30.24
10732;BME280;5417;42.686;23.244;2022-08-19T05:27:24;94077.94;;;35.57;30.52
10732;BME280;5417;42.686;23.244;2022-08-19T05:29:51;94086.94;;;35.52;30.56
10732;BME280;5417;42.686;23.244;2022-08-19T05:32:20;94078.06;;;35.47;30.75
10732;BME280;5417;42.686;23.244;2022-08-19T05:34:47;94082.16;;;35.44;30.97
10732;BME280;5417;42.686;23.244;2022-08-19T05:37:14;94081.97;;;35.30;30.82
10732;BME280;5417;42.686;23.244;2022-08-19T05:39:42;94088.25;;;35.26;31.10
10732;BME280;5417;42.686;23.244;2022-08-19T05:42:11;94083.84;;;35.06;30.99
10732;BME280;5417;42.686;23.244;2022-08-19T05:44:41;94078.06;;;34.89;31.05
10732;BME280;5417;42.686;23.244;2022-08-19T05:47:10;94076.16;;;34.89;30.78
10732;BME280;5417;42.686;23.244;2022-08-19T05:49:40;94080.25;;;34.76;31.41
10732;BME280;5417;42.686;23.244;2022-08-19T05:52:10;94081.19;;;34.62;31.78
10732;BME280;5417;42.686;23.244;2022-08-19T05:54:38;94084.19;;;34.11;32.31
10732;BME280;5417;42.686;23.244;2022-08-19T05:57:07;94083.66;;;34.09;32.63
10732;BME280;5417;42.686;23.244;2022-08-19T05:59:34;94084.03;;;33.77;32.67
10732;BME280;5417;42.686;23.244;2022-08-19T06:02:03;94086.44;;;33.78;32.69
10732;BME280;5417;42.686;23.244;2022-08-19T06:04:31;94089.63;;;34.06;32.80
10732;BME280;5417;42.686;23.244;2022-08-19T06:06:59;94085.34;;;34.49;32.07
10732;BME280;5417;42.686;23.244;2022-08-19T06:09:27;94086.97;;;34.84;31.84
10732;BME280;5417;42.686;23.244;2022-08-19T06:11:56;94092.94;;;34.86;31.44
10732;BME280;5417;42.686;23.244;2022-08-19T06:14:26;94083.72;;;34.82;31.39
10732;BME280;5417;42.686;23.244;2022-08-19T06:16:53;94090.25;;;34.86;31.40
10732;BME280;5417;42.686;23.244;2022-08-19T06:19:22;94086.44;;;34.87;31.35
10732;BME280;5417;42.686;23.244;2022-08-19T06:21:51;94087.28;;;34.77;31.17
10732;BME280;5417;42.686;23.244;2022-08-19T06:24:23;94096.41;;;34.53;32.10
10732;BME280;5417;42.686;23.244;2022-08-19T06:26:51;94091.31;;;34.46;31.51
10732;BME280;5417;42.686;23.244;2022-08-19T06:29:20;94089.94;;;34.48;31.64
10732;BME280;5417;42.686;23.244;2022-08-19T06:31:50;94096.47;;;34.42;32.11
10732;BME280;5417;42.686;23.244;2022-08-19T06:34:18;94089.97;;;34.43;32.57
10732;BME280;5417;42.686;23.244;2022-08-19T06:36:47;94091.84;;;34.48;32.39
10732;BME280;5417;42.686;23.244;2022-08-19T06:39:21;94093.78;;;34.42;32.68
10732;BME280;5417;42.686;23.244;2022-08-19T06:41:49;94097.84;;;34.40;33.07
10732;BME280;5417;42.686;23.244;2022-08-19T06:44:17;94093.25;;;34.40;32.58
10732;BME280;5417;42.686;23.244;2022-08-19T06:46:44;94089.22;;;34.33;32.17
10732;BME280;5417;42.686;23.244;2022-08-19T06:49:11;94087.84;;;34.40;33.08
10732;BME280;5417;42.686;23.244;2022-08-19T06:51:40;94091.38;;;34.36;32.45
10732;BME280;5417;42.686;23.244;2022-08-19T06:54:08;94101.06;;;33.88;32.61
10732;BME280;5417;42.686;23.244;2022-08-19T06:56:36;94098.66;;;33.66;32.97
10732;BME280;5417;42.686;23.244;2022-08-19T06:59:06;94098.66;;;33.61;33.76
10732;BME280;5417;42.686;23.244;2022-08-19T07:01:38;94097.53;;;33.77;33.90
10732;BME280;5417;42.686;23.244;2022-08-19T07:04:06;94101.84;;;33.78;34.05
10732;BME280;5417;42.686;23.244;2022-08-19T07:06:34;94103.69;;;34.03;33.29
10732;BME280;5417;42.686;23.244;2022-08-19T07:09:03;94106.47;;;33.82;33.29
10732;BME280;5417;42.686;23.244;2022-08-19T07:11:30;94106.13;;;33.99;33.44
10732;BME280;5417;42.686;23.244;2022-08-19T07:14:00;94110.25;;;33.86;33.36
10732;BME280;5417;42.686;23.244;2022-08-19T07:16:27;94108.91;;;33.84;33.30
10732;BME280;5417;42.686;23.244;2022-08-19T07:18:54;94101.00;;;33.98;33.38
10732;BME280;5417;42.686;23.244;2022-08-19T07:21:23;94097.75;;;34.01;33.25
10732;BME280;5417;42.686;23.244;2022-08-19T07:23:52;94113.38;;;34.09;33.38
10732;BME280;5417;42.686;23.244;2022-08-19T07:26:20;94108.50;;;34.11;33.07
10732;BME280;5417;42.686;23.244;2022-08-19T07:28:48;94108.28;;;34.02;32.75
10732;BME280;5417;42.686;23.244;2022-08-19T07:31:18;94103.59;;;34.18;33.27
10732;BME280;5417;42.686;23.244;2022-08-19T07:33:46;94100.94;;;34.08;33.67
10732;BME280;5417;42.686;23.244;2022-08-19T07:36:17;94104.44;;;34.13;33.59
10732;BME280;5417;42.686;23.244;2022-08-19T07:38:46;94100.09;;;34.17;33.13
10732;BME280;5417;42.686;23.244;2022-08-19T07:41:16;94093.31;;;34.20;33.54
10732;BME280;5417;42.686;23.244;2022-08-19T07:43:44;94099.50;;;34.36;33.88
10732;BME280;5417;42.686;23.244;2022-08-19T07:46:11;94095.63;;;34.47;33.06
10732;BME280;5417;42.686;23.244;2022-08-19T07:48:41;94096.41;;;34.53;32.72
10732;BME280;5417;42.686;23.244;2022-08-19T07:51:10;94091.53;;;34.55;31.80
10732;BME280;5417;42.686;23.244;2022-08-19T07:53:38;94104.03;;;34.45;31.75
10732;BME280;5417;42.686;23.244;2022-08-19T07:56:05;94102.91;;;34.52;32.98
10732;BME280;5417;42.686;23.244;2022-08-19T07:58:34;94099.03;;;34.63;32.06
10732;BME280;5417;42.686;23.244;2022-08-19T08:01:03;94103.31;;;34.69;32.58
10732;BME280;5417;42.686;23.244;2022-08-19T08:03:31;94093.78;;;34.76;31.75
10732;BME280;5417;42.686;23.244;2022-08-19T08:06:17;94093.19;;;34.85;31.45
10732;BME280;5417;42.686;23.244;2022-08-19T08:09:03;94096.19;;;34.83;31.84
10732;BME280;5417;42.686;23.244;2022-08-19T08:11:49;94096.72;;;34.85;30.94
10732;BME280;5417;42.686;23.244;2022-08-19T08:14:18;94089.88;;;34.98;31.50
10732;BME280;5417;42.686;23.244;2022-08-19T08:16:47;94091.09;;;35.10;30.73
10732;BME280;5417;42.686;23.244;2022-08-19T08:19:16;94083.13;;;35.24;31.46
10732;BME280;5417;42.686;23.244;2022-08-19T08:21:45;94088.81;;;35.23;30.55
10732;BME280;5417;42.686;23.244;2022-08-19T08:24:12;94082.53;;;35.27;31.64
10732;BME280;5417;42.686;23.244;2022-08-19T08:26:39;94086.25;;;35.36;30.50
10732;BME280;5417;42.686;23.244;2022-08-19T08:29:06;94084.09;;;35.38;31.24
10732;BME280;5417;42.686;23.244;2022-08-19T08:31:38;94073.81;;;35.40;30.39
10732;BME280;5417;42.686;23.244;2022-08-19T08:34:06;94075.72;;;35.35;30.16
10732;BME280;5417;42.686;23.244;2022-08-19T08:36:36;94076.25;;;35.37;30.85
10732;BME280;5417;42.686;23.244;2022-08-19T08:39:09;94073.75;;;35.46;30.91
10732;BME280;5417;42.686;23.244;2022-08-19T08:41:42;94075.81;;;35.54;29.94
10732;BME280;5417;42.686;23.244;2022-08-19T08:44:14;94074.97;;;35.00;30.73
10732;BME280;5417;42.686;23.244;2022-08-19T08:46:46;94076.25;;;34.69;30.17
10732;BME280;5417;42.686;23.244;2022-08-19T08:49:28;94074.25;;;34.51;31.50
10732;BME280;5417;42.686;23.244;2022-08-19T08:52:02;94074.28;;;34.45;30.78
10732;BME280;5417;42.686;23.244;2022-08-19T08:54:34;94072.59;;;34.55;30.62
10732;BME280;5417;42.686;23.244;2022-08-19T08:57:04;94066.13;;;34.51;30.28
10732;BME280;5417;42.686;23.244;2022-08-19T08:59:35;94063.34;;;34.61;29.75
10732;BME280;5417;42.686;23.244;2022-08-19T09:02:03;94063.75;;;34.78;29.59
10732;BME280;5417;42.686;23.244;2022-08-19T09:04:31;94058.56;;;34.53;30.84
10732;BME280;5417;42.686;23.244;2022-08-19T09:07:11;94066.50;;;34.39;30.82
10732;BME280;5417;42.686;23.244;2022-08-19T09:09:46;94056.69;;;34.48;30.79
10732;BME280;5417;42.686;23.244;2022-08-19T09:12:21;94061.00;;;34.49;30.32
10732;BME280;5417;42.686;23.244;2022-08-19T09:15:00;94053.63;;;34.60;30.38
10732;BME280;5417;42.686;23.244;2022-08-19T09:17:29;94048.56;;;34.82;30.05
10732;BME280;5417;42.686;23.244;2022-08-19T09:20:02;94041.69;;;35.00;29.85
10732;BME280;5417;42.686;23.244;2022-08-19T09:22:34;94050.19;;;35.17;29.95
10732;BME280;5417;42.686;23.244;2022-08-19T09:25:05;94047.88;;;35.29;29.98
10732;BME280;5417;42.686;23.244;2022-08-19T09:27:32;94048.44;;;35.26;28.16
10732;BME280;5417;42.686;23.244;2022-08-19T09:30:02;94050.13;;;35.22;28.30
10732;BME280;5417;42.686;23.244;2022-08-19T09:32:29;94044.06;;;35.06;27.56
10732;BME280;5417;42.686;23.244;2022-08-19T09:34:56;94041.34;;;35.06;27.17
10732;BME280;5417;42.686;23.244;2022-08-19T09:37:24;94040.84;;;35.04;27.50
10732;BME280;5417;42.686;23.244;2022-08-19T09:39:52;94032.78;;;34.99;27.25
10732;BME280;5417;42.686;23.244;2022-08-19T09:42:20;94033.88;;;34.98;26.50
10732;BME280;5417;42.686;23.244;2022-08-19T09:44:49;94036.06;;;34.96;27.20
10732;BME280;5417;42.686;23.244;2022-08-19T09:47:16;94037.03;;;35.05;27.52
10732;BME280;5417;42.686;23.244;2022-08-19T09:49:43;94038.94;;;35.05;26.23
10732;BME280;5417;42.686;23.244;2022-08-19T09:52:11;94033.19;;;35.11;26.23
10732;BME280;5417;42.686;23.244;2022-08-19T09:54:40;94032.66;;;35.09;25.67
10732;BME280;5417;42.686;23.244;2022-08-19T09:57:07;94029.63;;;35.16;26.12
10732;BME280;5417;42.686;23.244;2022-08-19T09:59:35;94022.72;;;35.29;25.50
10732;BME280;5417;42.686;23.244;2022-08-19T10:02:04;94017.19;;;35.44;26.93
10732;BME280;5417;42.686;23.244;2022-08-19T10:04:33;94013.66;;;35.44;26.00
10732;BME280;5417;42.686;23.244;2022-08-19T10:07:18;94024.44;;;35.20;25.61
10732;BME280;5417;42.686;23.244;2022-08-19T10:09:45;94000.41;;;34.89;26.71
10732;BME280;5417;42.686;23.244;2022-08-19T10:12:12;94003.88;;;34.61;26.30
10732;BME280;5417;42.686;23.244;2022-08-19T10:14:40;93996.03;;;34.20;26.18
10732;BME280;5417;42.686;23.244;2022-08-19T10:17:07;94007.38;;;34.22;27.57
10732;BME280;5417;42.686;23.244;2022-08-19T10:19:34;94003.59;;;34.23;27.30
10732;BME280;5417;42.686;23.244;2022-08-19T10:22:07;94002.47;;;34.29;25.71
10732;BME280;5417;42.686;23.244;2022-08-19T10:24:36;94011.78;;;34.52;26.87
10732;BME280;5417;42.686;23.244;2022-08-19T10:27:04;94006.00;;;34.64;25.73
10732;BME280;5417;42.686;23.244;2022-08-19T10:29:32;93994.88;;;34.70;25.69
10732;BME280;5417;42.686;23.244;2022-08-19T10:32:03;93995.66;;;34.71;26.46
10732;BME280;5417;42.686;23.244;2022-08-19T10:34:34;93993.16;;;34.79;25.74
10732;BME280;5417;42.686;23.244;2022-08-19T10:37:02;93995.09;;;34.74;24.78
10732;BME280;5417;42.686;23.244;2022-08-19T10:39:31;93992.91;;;34.76;24.22
10732;BME280;5417;42.686;23.244;2022-08-19T10:41:58;93989.34;;;34.80;24.64
10732;BME280;5417;42.686;23.244;2022-08-19T10:44:25;93993.63;;;34.92;25.03
10732;BME280;5417;42.686;23.244;2022-08-19T10:46:53;93983.56;;;34.97;24.70
10732;BME280;5417;42.686;23.244;2022-08-19T10:49:22;93988.50;;;34.90;24.73
10732;BME280;5417;42.686;23.244;2022-08-19T10:51:49;93985.00;;;34.85;24.51
10732;BME280;5417;42.686;23.244;2022-08-19T10:54:30;93986.09;;;34.84;25.42
10732;BME280;5417;42.686;23.244;2022-08-19T10:57:13;93986.31;;;34.92;26.58
10732;BME280;5417;42.686;23.244;2022-08-19T10:59:39;93981.44;;;34.94;26.78
10732;BME280;5417;42.686;23.244;2022-08-19T11:02:09;93989.78;;;34.98;26.80
10732;BME280;5417;42.686;23.244;2022-08-19T11:04:39;93980.97;;;35.11;27.10
10732;BME280;5417;42.686;23.244;2022-08-19T11:07:07;93984.19;;;35.13;26.15
10732;BME280;5417;42.686;23.244;2022-08-19T11:09:38;93979.75;;;35.22;25.83
10732;BME280;5417;42.686;23.244;2022-08-19T11:12:06;93979.81;;;35.17;26.13
10732;BME280;5417;42.686;23.244;2022-08-19T11:14:34;93971.00;;;35.30;26.83
10732;BME280;5417;42.686;23.244;2022-08-19T11:17:02;93972.69;;;35.26;26.23
10732;BME280;5417;42.686;23.244;2022-08-19T11:19:30;93975.59;;;35.30;26.07
10732;BME280;5417;42.686;23.244;2022-08-19T11:21:59;93969.75;;;35.23;25.35
10732;BME280;5417;42.686;23.244;2022-08-19T11:24:27;93968.56;;;34.76;26.70
10732;BME280;5417;42.686;23.244;2022-08-19T11:27:01;93969.09;;;34.49;27.12
10732;BME280;5417;42.686;23.244;2022-08-19T11:29:31;93964.00;;;34.47;27.17
10732;BME280;5417;42.686;23.244;2022-08-19T11:32:00;93958.59;;;34.47;27.22
10732;BME280;5417;42.686;23.244;2022-08-19T11:34:31;93954.91;;;34.33;27.29
10732;BME280;5417;42.686;23.244;2022-08-19T11:36:59;93957.09;;;34.26;27.45
10732;BME280;5417;42.686;23.244;2022-08-19T11:39:29;93950.31;;;34.29;27.61
10732;BME280;5417;42.686;23.244;2022-08-19T11:41:58;93948.59;;;34.09;27.13
10732;BME280;5417;42.686;23.244;2022-08-19T11:44:26;93947.22;;;33.62;27.70
10732;BME280;5417;42.686;23.244;2022-08-19T11:46:53;93951.81;;;33.62;28.54
10732;BME280;5417;42.686;23.244;2022-08-19T11:49:20;93952.38;;;33.59;28.92
10732;BME280;5417;42.686;23.244;2022-08-19T11:51:49;93947.72;;;33.69;28.15
10732;BME280;5417;42.686;23.244;2022-08-19T11:54:18;93953.13;;;33.69;27.25
10732;BME280;5417;42.686;23.244;2022-08-19T11:56:46;93950.06;;;33.81;28.37
10732;BME280;5417;42.686;23.244;2022-08-19T11:59:15;93941.72;;;33.88;28.85
10732;BME280;5417;42.686;23.244;2022-08-19T12:01:43;93933.81;;;33.96;28.24
10732;BME280;5417;42.686;23.244;2022-08-19T12:04:11;93925.41;;;34.03;27.69
10732;BME280;5417;42.686;23.244;2022-08-19T12:06:39;93926.72;;;34.05;28.00
10732;BME280;5417;42.686;23.244;2022-08-19T12:09:08;93922.13;;;34.06;28.11
10732;BME280;5417;42.686;23.244;2022-08-19T12:11:38;93918.09;;;34.03;28.05
10732;BME280;5417;42.686;23.244;2022-08-19T12:14:10;93920.53;;;34.05;28.39
10732;BME280;5417;42.686;23.244;2022-08-19T12:16:40;93919.47;;;34.01;27.77
10732;BME280;5417;42.686;23.244;2022-08-19T12:19:07;93914.34;;;33.99;27.99
10732;BME280;5417;42.686;23.244;2022-08-19T12:21:36;93905.94;;;34.06;28.09
10732;BME280;5417;42.686;23.244;2022-08-19T12:24:05;93902.34;;;34.15;28.70
10732;BME280;5417;42.686;23.244;2022-08-19T12:26:33;93906.28;;;34.28;27.74
10732;BME280;5417;42.686;23.244;2022-08-19T12:29:02;93898.13;;;34.38;27.26
10732;BME280;5417;42.686;23.244;2022-08-19T12:31:29;93892.97;;;34.42;28.03
10732;BME280;5417;42.686;23.244;2022-08-19T12:33:57;93895.72;;;34.37;27.81
10732;BME280;5417;42.686;23.244;2022-08-19T12:36:27;93893.19;;;34.11;27.51
10732;BME280;5417;42.686;23.244;2022-08-19T12:38:54;93897.16;;;33.80;27.43
10732;BME280;5417;42.686;23.244;2022-08-19T12:41:23;93888.00;;;33.86;28.78
10732;BME280;5417;42.686;23.244;2022-08-19T12:43:50;93887.44;;;33.89;28.05
10732;BME280;5417;42.686;23.244;2022-08-19T12:46:19;93888.25;;;33.90;27.56
10732;BME280;5417;42.686;23.244;2022-08-19T12:48:46;93887.47;;;33.84;28.51
10732;BME280;5417;42.686;23.244;2022-08-19T12:51:16;93881.53;;;33.77;28.13
10732;BME280;5417;42.686;23.244;2022-08-19T12:53:46;93884.47;;;33.80;28.49
10732;BME280;5417;42.686;23.244;2022-08-19T12:56:15;93879.88;;;33.81;27.82
10732;BME280;5417;42.686;23.244;2022-08-19T12:58:42;93866.03;;;33.98;27.55
10732;BME280;5417;42.686;23.244;2022-08-19T13:01:11;93879.81;;;33.96;27.54
10732;BME280;5417;42.686;23.244;2022-08-19T13:03:40;93869.34;;;33.79;27.24
10732;BME280;5417;42.686;23.244;2022-08-19T13:06:08;93874.22;;;33.88;27.70
10732;BME280;5417;42.686;23.244;2022-08-19T13:08:35;93876.66;;;33.84;27.23
10732;BME280;5417;42.686;23.244;2022-08-19T13:11:09;93867.91;;;33.97;27.22
10732;BME280;5417;42.686;23.244;2022-08-19T13:13:38;93856.34;;;33.92;27.35